EDW12R EGLC-LSZH
Flight info
| Callsign | EDW12R |
|---|---|
| Flight time | 1h 2m |
| Altitude | 37000 |
| Route | SOQQA1H SOQQA M87 UMTUM L9 DVR UL9 KONAN UL607 KOK DCT CIV DCT SUTAL DCT GTQ DCT BAMEV DCT BLM BLM3G |
| Aircraft | A320/M-VGDW/C |
Departure
| Time | 2026-04-26 10:40 |
|---|---|
| Airport | London City Airport (EGLC) |
Arrival
| Time | 2026-04-26 11:43 |
|---|---|
| Airport | Zürich Airport (LSZH) |
| Time | Latitude | Longitude | Altitude | Speed | Heading |
|---|---|---|---|---|---|
| 2026-04-26 10:17 | 51.50443 | 0.04709 | 30 ft | 0 kts | 186° |
| 2026-04-26 10:29 | 51.50455 | 0.04712 | 30 ft | 2 kts | 190° |
| 2026-04-26 10:29 | 51.50469 | 0.04723 | 29 ft | 2 kts | 258° |
| 2026-04-26 10:29 | 51.50470 | 0.04740 | 30 ft | 1 kts | 273° |
| 2026-04-26 10:32 | 51.50471 | 0.04724 | 29 ft | 5 kts | 272° |
| 2026-04-26 10:32 | 51.50472 | 0.04675 | 29 ft | 4 kts | 273° |
| 2026-04-26 10:32 | 51.50473 | 0.04643 | 28 ft | 2 kts | 272° |
| 2026-04-26 10:32 | 51.50474 | 0.04595 | 27 ft | 9 kts | 272° |
| 2026-04-26 10:33 | 51.50480 | 0.04479 | 25 ft | 9 kts | 285° |
| 2026-04-26 10:33 | 51.50517 | 0.04443 | 26 ft | 5 kts | 356° |
| 2026-04-26 10:33 | 51.50531 | 0.04446 | 30 ft | 3 kts | 14° |
| 2026-04-26 10:33 | 51.50546 | 0.04458 | 27 ft | 4 kts | 32° |
| 2026-04-26 10:34 | 51.50551 | 0.04471 | 27 ft | 2 kts | 62° |
| 2026-04-26 10:34 | 51.50554 | 0.04491 | 28 ft | 2 kts | 78° |
| 2026-04-26 10:34 | 51.50554 | 0.04508 | 28 ft | 0 kts | 90° |
| 2026-04-26 10:34 | 51.50548 | 0.04716 | 29 ft | 42 kts | 93° |
| 2026-04-26 10:35 | 51.50538 | 0.04970 | 32 ft | 6 kts | 103° |
| 2026-04-26 10:35 | 51.50517 | 0.05010 | 31 ft | 5 kts | 139° |
| 2026-04-26 10:35 | 51.50473 | 0.05023 | 29 ft | 8 kts | 210° |
| 2026-04-26 10:35 | 51.50464 | 0.04986 | 29 ft | 0 kts | 269° |
| 2026-04-26 10:38 | 51.50464 | 0.04952 | 29 ft | 4 kts | 271° |
| 2026-04-26 10:38 | 51.50464 | 0.04901 | 30 ft | 5 kts | 271° |
| 2026-04-26 10:38 | 51.50468 | 0.04803 | 31 ft | 11 kts | 274° |
| 2026-04-26 10:38 | 51.50472 | 0.04662 | 29 ft | 16 kts | 271° |
| 2026-04-26 10:39 | 51.50522 | 0.04539 | 28 ft | 12 kts | 5° |
| 2026-04-26 10:39 | 51.50553 | 0.04614 | 29 ft | 6 kts | 89° |
| 2026-04-26 10:39 | 51.50552 | 0.04652 | 29 ft | 0 kts | 93° |
| 2026-04-26 10:39 | 51.50552 | 0.04653 | 29 ft | 3 kts | 93° |
| 2026-04-26 10:40 | 51.50539 | 0.05023 | 32 ft | 63 kts | 92° |
| 2026-04-26 10:40 | 51.50505 | 0.06032 | 27 ft | 118 kts | 94° |
| 2026-04-26 10:40 | 51.50448 | 0.07457 | 469 ft | 128 kts | 93° |
| 2026-04-26 10:40 | 51.50525 | 0.08910 | 1003 ft | 139 kts | 75° |
| 2026-04-26 10:41 | 51.50854 | 0.10480 | 1456 ft | 159 kts | 69° |
| 2026-04-26 10:41 | 51.51359 | 0.12246 | 1766 ft | 191 kts | 64° |
| 2026-04-26 10:41 | 51.52122 | 0.14142 | 2277 ft | 215 kts | 45° |
| 2026-04-26 10:41 | 51.53423 | 0.15502 | 2903 ft | 235 kts | 28° |
| 2026-04-26 10:42 | 51.54753 | 0.17171 | 3471 ft | 252 kts | 53° |
| 2026-04-26 10:42 | 51.55616 | 0.19658 | 4133 ft | 266 kts | 67° |
| 2026-04-26 10:42 | 51.56298 | 0.22510 | 4738 ft | 282 kts | 70° |
| 2026-04-26 10:42 | 51.56990 | 0.25570 | 5313 ft | 299 kts | 70° |
| 2026-04-26 10:43 | 51.57744 | 0.28768 | 5868 ft | 315 kts | 68° |
| 2026-04-26 10:43 | 51.58590 | 0.32112 | 6454 ft | 330 kts | 66° |
| 2026-04-26 10:43 | 51.59308 | 0.35695 | 7017 ft | 344 kts | 78° |
| 2026-04-26 10:43 | 51.59629 | 0.39574 | 7565 ft | 357 kts | 85° |
| 2026-04-26 10:44 | 51.59697 | 0.43632 | 8120 ft | 369 kts | 90° |
| 2026-04-26 10:44 | 51.59586 | 0.47755 | 8676 ft | 379 kts | 94° |
| 2026-04-26 10:44 | 51.59315 | 0.52021 | 9254 ft | 388 kts | 100° |
| 2026-04-26 10:44 | 51.58390 | 0.56131 | 9828 ft | 397 kts | 120° |
| 2026-04-26 10:45 | 51.56608 | 0.59542 | 10418 ft | 404 kts | 140° |
| 2026-04-26 10:45 | 51.54184 | 0.61828 | 10959 ft | 409 kts | 160° |
| 2026-04-26 10:45 | 51.51493 | 0.62681 | 11499 ft | 383 kts | 179° |
| 2026-04-26 10:45 | 51.48817 | 0.62538 | 12045 ft | 388 kts | 185° |
| 2026-04-26 10:46 | 51.46101 | 0.62262 | 12600 ft | 394 kts | 184° |
| 2026-04-26 10:46 | 51.43326 | 0.62348 | 12953 ft | 400 kts | 171° |
| 2026-04-26 10:46 | 51.40735 | 0.63747 | 13530 ft | 402 kts | 152° |
| 2026-04-26 10:46 | 51.38492 | 0.66443 | 14129 ft | 408 kts | 136° |
| 2026-04-26 10:47 | 51.36576 | 0.69822 | 14655 ft | 412 kts | 131° |
| 2026-04-26 10:47 | 51.34750 | 0.73380 | 15186 ft | 415 kts | 129° |
| 2026-04-26 10:47 | 51.32950 | 0.77017 | 15730 ft | 418 kts | 129° |
| 2026-04-26 10:47 | 51.31154 | 0.80691 | 16279 ft | 421 kts | 129° |
| 2026-04-26 10:48 | 51.29350 | 0.84383 | 16814 ft | 423 kts | 129° |
| 2026-04-26 10:48 | 51.27536 | 0.88084 | 17395 ft | 424 kts | 129° |
| 2026-04-26 10:48 | 51.25706 | 0.91790 | 18002 ft | 426 kts | 129° |
| 2026-04-26 10:48 | 51.23891 | 0.95445 | 18591 ft | 424 kts | 129° |
| 2026-04-26 10:49 | 51.22278 | 0.99216 | 19118 ft | 406 kts | 117° |
| 2026-04-26 10:49 | 51.21219 | 1.03334 | 19638 ft | 400 kts | 110° |
| 2026-04-26 10:49 | 51.20368 | 1.07554 | 20173 ft | 400 kts | 107° |
| 2026-04-26 10:49 | 51.19618 | 1.11832 | 20718 ft | 401 kts | 105° |
| 2026-04-26 10:50 | 51.18933 | 1.16144 | 21255 ft | 402 kts | 104° |
| 2026-04-26 10:50 | 51.18504 | 1.19019 | 21583 ft | 403 kts | 103° |
| 2026-04-26 10:50 | 51.17689 | 1.24809 | 22249 ft | 405 kts | 102° |
| 2026-04-26 10:50 | 51.17101 | 1.29204 | 22740 ft | 406 kts | 101° |
| 2026-04-26 10:51 | 51.16641 | 1.33647 | 23265 ft | 407 kts | 98° |
| 2026-04-26 10:51 | 51.16005 | 1.42608 | 24246 ft | 407 kts | 95° |
| 2026-04-26 10:51 | 51.15743 | 1.47105 | 24661 ft | 408 kts | 95° |
| 2026-04-26 10:52 | 51.15499 | 1.51612 | 25036 ft | 409 kts | 95° |
| 2026-04-26 10:52 | 51.15264 | 1.56141 | 25417 ft | 411 kts | 95° |
| 2026-04-26 10:52 | 51.15034 | 1.60678 | 25801 ft | 412 kts | 94° |
| 2026-04-26 10:52 | 51.14811 | 1.65169 | 26187 ft | 412 kts | 94° |
| 2026-04-26 10:53 | 51.14585 | 1.69726 | 26587 ft | 413 kts | 94° |
| 2026-04-26 10:53 | 51.14359 | 1.74285 | 26988 ft | 413 kts | 95° |
| 2026-04-26 10:53 | 51.14133 | 1.78847 | 27396 ft | 413 kts | 95° |
| 2026-04-26 10:54 | 51.13677 | 1.87957 | 28232 ft | 412 kts | 95° |
| 2026-04-26 10:54 | 51.13448 | 1.92506 | 28660 ft | 412 kts | 95° |
| 2026-04-26 10:54 | 51.13216 | 1.97044 | 29087 ft | 411 kts | 95° |
| 2026-04-26 10:54 | 51.12979 | 2.01540 | 29396 ft | 413 kts | 95° |
| 2026-04-26 10:55 | 51.12735 | 2.06115 | 29708 ft | 415 kts | 95° |
| 2026-04-26 10:55 | 51.12489 | 2.10713 | 30012 ft | 417 kts | 95° |
| 2026-04-26 10:55 | 51.12240 | 2.15328 | 30321 ft | 419 kts | 95° |
| 2026-04-26 10:55 | 51.11988 | 2.19967 | 30583 ft | 421 kts | 95° |
| 2026-04-26 10:56 | 51.11733 | 2.24627 | 30851 ft | 422 kts | 95° |
| 2026-04-26 10:56 | 51.11477 | 2.29297 | 31112 ft | 424 kts | 95° |
| 2026-04-26 10:56 | 51.11218 | 2.33984 | 31370 ft | 425 kts | 95° |
| 2026-04-26 10:56 | 51.10956 | 2.38693 | 31626 ft | 426 kts | 95° |
| 2026-04-26 10:57 | 51.10697 | 2.43344 | 31869 ft | 428 kts | 95° |
| 2026-04-26 10:57 | 51.10431 | 2.48082 | 32097 ft | 430 kts | 95° |
| 2026-04-26 10:57 | 51.10164 | 2.52829 | 32320 ft | 432 kts | 95° |
| 2026-04-26 10:57 | 51.09894 | 2.57592 | 32572 ft | 433 kts | 95° |
| 2026-04-26 10:58 | 51.09361 | 2.62277 | 33018 ft | 428 kts | 111° |
| 2026-04-26 10:58 | 51.08121 | 2.66538 | 33468 ft | 422 kts | 121° |
| 2026-04-26 10:58 | 51.06643 | 2.70568 | 33670 ft | 424 kts | 123° |
| 2026-04-26 10:58 | 51.05088 | 2.74512 | 33732 ft | 430 kts | 124° |
| 2026-04-26 10:59 | 51.01759 | 2.82549 | 33979 ft | 438 kts | 126° |
| 2026-04-26 10:59 | 51.00053 | 2.86567 | 34184 ft | 440 kts | 126° |
| 2026-04-26 10:59 | 50.98331 | 2.90586 | 34376 ft | 442 kts | 126° |
| 2026-04-26 11:00 | 50.96598 | 2.94607 | 34613 ft | 441 kts | 126° |
| 2026-04-26 11:00 | 50.94854 | 2.98635 | 34778 ft | 444 kts | 126° |
| 2026-04-26 11:00 | 50.93100 | 3.02673 | 34955 ft | 445 kts | 126° |
| 2026-04-26 11:00 | 50.91366 | 3.06654 | 35148 ft | 446 kts | 126° |
| 2026-04-26 11:01 | 50.89596 | 3.10702 | 35284 ft | 448 kts | 126° |
| 2026-04-26 11:01 | 50.87816 | 3.14765 | 35484 ft | 449 kts | 126° |
| 2026-04-26 11:01 | 50.86034 | 3.18828 | 35695 ft | 449 kts | 126° |
| 2026-04-26 11:01 | 50.84246 | 3.22898 | 35850 ft | 451 kts | 126° |
| 2026-04-26 11:02 | 50.82452 | 3.26974 | 36055 ft | 452 kts | 126° |
| 2026-04-26 11:02 | 50.80650 | 3.31060 | 36223 ft | 453 kts | 126° |
| 2026-04-26 11:02 | 50.78867 | 3.35098 | 36403 ft | 454 kts | 126° |
| 2026-04-26 11:02 | 50.77056 | 3.39193 | 36590 ft | 455 kts | 126° |
| 2026-04-26 11:03 | 50.75238 | 3.43295 | 36752 ft | 457 kts | 126° |
| 2026-04-26 11:03 | 50.73415 | 3.47407 | 36937 ft | 457 kts | 126° |
| 2026-04-26 11:03 | 50.71586 | 3.51524 | 37106 ft | 459 kts | 126° |
| 2026-04-26 11:03 | 50.69750 | 3.55649 | 37243 ft | 461 kts | 126° |
| 2026-04-26 11:04 | 50.66027 | 3.63991 | 37307 ft | 470 kts | 126° |
| 2026-04-26 11:04 | 50.62254 | 3.72432 | 37306 ft | 479 kts | 126° |
| 2026-04-26 11:05 | 50.58398 | 3.81104 | 37309 ft | 489 kts | 125° |
| 2026-04-26 11:05 | 50.54587 | 3.90094 | 37304 ft | 498 kts | 124° |
| 2026-04-26 11:06 | 50.50761 | 3.99267 | 37307 ft | 506 kts | 124° |
| 2026-04-26 11:06 | 50.46921 | 4.08489 | 37307 ft | 507 kts | 123° |
| 2026-04-26 11:07 | 50.43052 | 4.17763 | 37313 ft | 508 kts | 123° |
| 2026-04-26 11:07 | 50.39177 | 4.27030 | 37316 ft | 508 kts | 124° |
| 2026-04-26 11:08 | 50.35296 | 4.36278 | 37322 ft | 508 kts | 124° |
| 2026-04-26 11:08 | 50.31432 | 4.45455 | 37314 ft | 508 kts | 124° |
| 2026-04-26 11:09 | 50.27538 | 4.54671 | 37312 ft | 508 kts | 124° |
| 2026-04-26 11:09 | 50.23636 | 4.63872 | 37302 ft | 508 kts | 124° |
| 2026-04-26 11:10 | 50.19724 | 4.73069 | 37294 ft | 508 kts | 124° |
| 2026-04-26 11:10 | 50.15836 | 4.82178 | 37285 ft | 508 kts | 124° |
| 2026-04-26 11:11 | 50.11916 | 4.91328 | 37280 ft | 508 kts | 124° |
| 2026-04-26 11:11 | 50.07986 | 5.00468 | 37272 ft | 508 kts | 124° |
| 2026-04-26 11:12 | 50.04050 | 5.09594 | 37261 ft | 508 kts | 124° |
| 2026-04-26 11:12 | 50.00113 | 5.18692 | 37262 ft | 507 kts | 124° |
| 2026-04-26 11:13 | 49.96190 | 5.27722 | 37264 ft | 507 kts | 124° |
| 2026-04-26 11:13 | 49.92235 | 5.36793 | 37256 ft | 507 kts | 124° |
| 2026-04-26 11:14 | 49.88282 | 5.45835 | 37255 ft | 507 kts | 124° |
| 2026-04-26 11:14 | 49.84340 | 5.54817 | 37251 ft | 507 kts | 124° |
| 2026-04-26 11:15 | 49.80369 | 5.63835 | 37257 ft | 507 kts | 124° |
| 2026-04-26 11:15 | 49.76394 | 5.72830 | 37250 ft | 507 kts | 124° |
| 2026-04-26 11:16 | 49.72410 | 5.81815 | 37262 ft | 506 kts | 124° |
| 2026-04-26 11:16 | 49.68422 | 5.90780 | 37265 ft | 506 kts | 125° |
| 2026-04-26 11:17 | 49.64454 | 5.99669 | 37266 ft | 506 kts | 125° |
| 2026-04-26 11:17 | 49.60449 | 6.08611 | 37263 ft | 506 kts | 125° |
| 2026-04-26 11:18 | 49.56440 | 6.17534 | 37261 ft | 506 kts | 125° |
| 2026-04-26 11:18 | 49.52426 | 6.26438 | 37268 ft | 506 kts | 125° |
| 2026-04-26 11:19 | 49.48405 | 6.35246 | 37263 ft | 506 kts | 130° |
| 2026-04-26 11:19 | 49.45899 | 6.39004 | 37278 ft | 504 kts | 146° |
| 2026-04-26 11:19 | 49.42904 | 6.41766 | 37269 ft | 502 kts | 154° |
| 2026-04-26 11:20 | 49.37663 | 6.45586 | 37247 ft | 502 kts | 157° |
| 2026-04-26 11:20 | 49.30198 | 6.50607 | 37240 ft | 501 kts | 158° |
| 2026-04-26 11:21 | 49.23844 | 6.54809 | 37238 ft | 500 kts | 158° |
| 2026-04-26 11:21 | 49.17453 | 6.59041 | 37250 ft | 501 kts | 158° |
| 2026-04-26 11:22 | 49.11067 | 6.63291 | 37246 ft | 500 kts | 158° |
| 2026-04-26 11:22 | 49.04693 | 6.67552 | 37245 ft | 500 kts | 158° |
| 2026-04-26 11:23 | 48.98337 | 6.71686 | 37240 ft | 500 kts | 159° |
| 2026-04-26 11:23 | 48.91884 | 6.75606 | 37246 ft | 500 kts | 160° |
| 2026-04-26 11:24 | 48.85434 | 6.79454 | 37245 ft | 495 kts | 161° |
| 2026-04-26 11:24 | 48.79017 | 6.83252 | 37235 ft | 495 kts | 161° |
| 2026-04-26 11:25 | 48.72649 | 6.87001 | 37227 ft | 494 kts | 161° |
| 2026-04-26 11:25 | 48.66238 | 6.90765 | 37063 ft | 496 kts | 161° |
| 2026-04-26 11:26 | 48.63016 | 6.92654 | 36835 ft | 496 kts | 161° |
| 2026-04-26 11:26 | 48.59798 | 6.94539 | 36601 ft | 496 kts | 161° |
| 2026-04-26 11:26 | 48.56576 | 6.96422 | 36363 ft | 497 kts | 161° |
| 2026-04-26 11:26 | 48.53389 | 6.98285 | 36139 ft | 488 kts | 161° |
| 2026-04-26 11:27 | 48.50279 | 7.00107 | 36115 ft | 470 kts | 161° |
| 2026-04-26 11:27 | 48.47256 | 7.01876 | 36029 ft | 468 kts | 161° |
| 2026-04-26 11:27 | 48.44215 | 7.03647 | 35683 ft | 482 kts | 161° |
| 2026-04-26 11:27 | 48.41043 | 7.05485 | 35336 ft | 495 kts | 161° |
| 2026-04-26 11:28 | 48.37811 | 7.07355 | 34995 ft | 499 kts | 161° |
| 2026-04-26 11:28 | 48.34594 | 7.09218 | 34655 ft | 489 kts | 161° |
| 2026-04-26 11:28 | 48.31466 | 7.11032 | 34315 ft | 475 kts | 161° |
| 2026-04-26 11:28 | 48.28419 | 7.12799 | 33943 ft | 464 kts | 161° |
| 2026-04-26 11:29 | 48.25431 | 7.14530 | 33559 ft | 459 kts | 161° |
| 2026-04-26 11:29 | 48.22445 | 7.16254 | 33185 ft | 461 kts | 161° |
| 2026-04-26 11:29 | 48.19436 | 7.17986 | 32810 ft | 465 kts | 161° |
| 2026-04-26 11:29 | 48.16439 | 7.19710 | 32453 ft | 468 kts | 161° |
| 2026-04-26 11:30 | 48.13393 | 7.21458 | 32093 ft | 469 kts | 161° |
| 2026-04-26 11:30 | 48.11331 | 7.22641 | 31847 ft | 469 kts | 161° |
| 2026-04-26 11:30 | 48.07304 | 7.24950 | 31372 ft | 468 kts | 161° |
| 2026-04-26 11:30 | 48.04262 | 7.26692 | 31028 ft | 469 kts | 161° |
| 2026-04-26 11:31 | 48.01212 | 7.28436 | 30677 ft | 470 kts | 161° |
| 2026-04-26 11:31 | 47.98153 | 7.30183 | 30207 ft | 474 kts | 161° |
| 2026-04-26 11:31 | 47.95059 | 7.31946 | 29528 ft | 475 kts | 161° |
| 2026-04-26 11:31 | 47.91974 | 7.33703 | 28862 ft | 474 kts | 161° |
| 2026-04-26 11:32 | 47.88897 | 7.35453 | 28211 ft | 473 kts | 161° |
| 2026-04-26 11:32 | 47.85857 | 7.37180 | 27583 ft | 475 kts | 161° |
| 2026-04-26 11:32 | 47.82755 | 7.38938 | 26954 ft | 478 kts | 161° |
| 2026-04-26 11:32 | 47.79647 | 7.40697 | 26348 ft | 479 kts | 161° |
| 2026-04-26 11:33 | 47.76519 | 7.42466 | 25749 ft | 480 kts | 161° |
| 2026-04-26 11:33 | 47.73416 | 7.44222 | 25167 ft | 474 kts | 161° |
| 2026-04-26 11:33 | 47.70351 | 7.45956 | 24588 ft | 469 kts | 161° |
| 2026-04-26 11:33 | 47.67314 | 7.47677 | 24025 ft | 466 kts | 160° |
| 2026-04-26 11:34 | 47.64458 | 7.49811 | 23424 ft | 467 kts | 147° |
| 2026-04-26 11:34 | 47.62056 | 7.53041 | 22789 ft | 467 kts | 130° |
| 2026-04-26 11:34 | 47.60370 | 7.57115 | 22171 ft | 465 kts | 114° |
| 2026-04-26 11:34 | 47.59522 | 7.61709 | 21566 ft | 462 kts | 97° |
| 2026-04-26 11:35 | 47.59551 | 7.66439 | 20973 ft | 459 kts | 83° |
| 2026-04-26 11:35 | 47.59998 | 7.71106 | 20377 ft | 455 kts | 81° |
| 2026-04-26 11:35 | 47.60452 | 7.75722 | 19792 ft | 451 kts | 83° |
| 2026-04-26 11:35 | 47.60650 | 7.78769 | 19416 ft | 448 kts | 85° |
| 2026-04-26 11:36 | 47.60924 | 7.84902 | 18664 ft | 443 kts | 86° |
| 2026-04-26 11:36 | 47.61081 | 7.89385 | 18040 ft | 439 kts | 87° |
| 2026-04-26 11:36 | 47.61227 | 7.93899 | 17042 ft | 437 kts | 86° |
| 2026-04-26 11:36 | 47.61369 | 7.98368 | 16070 ft | 433 kts | 86° |
| 2026-04-26 11:37 | 47.61513 | 8.02774 | 15114 ft | 421 kts | 86° |
| 2026-04-26 11:37 | 47.61618 | 8.05829 | 14451 ft | 409 kts | 86° |
| 2026-04-26 11:37 | 47.61767 | 8.09949 | 13508 ft | 391 kts | 86° |
| 2026-04-26 11:37 | 47.61709 | 8.13896 | 12554 ft | 376 kts | 101° |
| 2026-04-26 11:38 | 47.60878 | 8.17357 | 11629 ft | 363 kts | 121° |
| 2026-04-26 11:38 | 47.59315 | 8.20186 | 10702 ft | 351 kts | 135° |
| 2026-04-26 11:38 | 47.57852 | 8.22942 | 9781 ft | 341 kts | 116° |
| 2026-04-26 11:38 | 47.57209 | 8.26238 | 8809 ft | 332 kts | 93° |
| 2026-04-26 11:39 | 47.57393 | 8.29592 | 7844 ft | 324 kts | 80° |
| 2026-04-26 11:39 | 47.57785 | 8.32852 | 6932 ft | 319 kts | 80° |
| 2026-04-26 11:39 | 47.58078 | 8.36012 | 6007 ft | 289 kts | 84° |
| 2026-04-26 11:39 | 47.57927 | 8.38685 | 5205 ft | 243 kts | 109° |
| 2026-04-26 11:40 | 47.57031 | 8.40607 | 4702 ft | 213 kts | 132° |
| 2026-04-26 11:40 | 47.56055 | 8.42149 | 4144 ft | 196 kts | 130° |
| 2026-04-26 11:40 | 47.55163 | 8.43606 | 3723 ft | 183 kts | 128° |
| 2026-04-26 11:40 | 47.54398 | 8.44867 | 3325 ft | 170 kts | 128° |
| 2026-04-26 11:41 | 47.53623 | 8.46106 | 3026 ft | 158 kts | 130° |
| 2026-04-26 11:42 | 47.48628 | 8.53008 | 1543 ft | 130 kts | 130° |
| 2026-04-26 11:43 | 47.47982 | 8.53907 | 1406 ft | 123 kts | 131° |
| 2026-04-26 11:43 | 47.47446 | 8.54667 | 1402 ft | 79 kts | 134° |
| 2026-04-26 11:43 | 47.47143 | 8.55078 | 1399 ft | 45 kts | 137° |
| 2026-04-26 11:43 | 47.46974 | 8.55304 | 1400 ft | 19 kts | 130° |
| 2026-04-26 11:44 | 47.46923 | 8.55378 | 1400 ft | 12 kts | 137° |
| 2026-04-26 11:44 | 47.46812 | 8.55521 | 1402 ft | 29 kts | 142° |
| 2026-04-26 11:44 | 47.46648 | 8.55659 | 1402 ft | 28 kts | 160° |
| 2026-04-26 11:44 | 47.46477 | 8.55720 | 1400 ft | 23 kts | 166° |
| 2026-04-26 11:45 | 47.46361 | 8.55791 | 1406 ft | 3 kts | 144° |
| 2026-04-26 11:45 | 47.46360 | 8.55792 | 1406 ft | 0 kts | 145° |
| 2026-04-26 11:46 | 47.46329 | 8.55830 | 1404 ft | 10 kts | 139° |
| 2026-04-26 11:46 | 47.46272 | 8.55887 | 1399 ft | 10 kts | 170° |
| 2026-04-26 11:47 | 47.46233 | 8.55826 | 1400 ft | 10 kts | 272° |
| 2026-04-26 11:47 | 47.46245 | 8.55636 | 1397 ft | 26 kts | 275° |
| 2026-04-26 11:47 | 47.46260 | 8.55398 | 1397 ft | 20 kts | 275° |
| 2026-04-26 11:47 | 47.46273 | 8.55220 | 1397 ft | 11 kts | 273° |
| 2026-04-26 11:48 | 47.46249 | 8.55197 | 1397 ft | 3 kts | 187° |
| 2026-04-26 11:48 | 47.46230 | 8.55194 | 1397 ft | 5 kts | 185° |
| 2026-04-26 11:48 | 47.46199 | 8.55189 | 1397 ft | 0 kts | 186° |